sensor_id;sensor_type;location;lat;lon;timestamp;temperature;humidity
69543;SHT31;56762;49.494;11.768;2023-11-18T00:00:10;2.22;80.96
69543;SHT31;56762;49.494;11.768;2023-11-18T00:02:40;2.11;81.98
69543;SHT31;56762;49.494;11.768;2023-11-18T00:05:11;2.04;81.04
69543;SHT31;56762;49.494;11.768;2023-11-18T00:07:40;1.94;81.82
69543;SHT31;56762;49.494;11.768;2023-11-18T00:10:08;1.88;82.41
69543;SHT31;56762;49.494;11.768;2023-11-18T00:12:37;1.81;82.61
69543;SHT31;56762;49.494;11.768;2023-11-18T00:15:08;1.77;83.22
69543;SHT31;56762;49.494;11.768;2023-11-18T00:17:37;1.84;82.97
69543;SHT31;56762;49.494;11.768;2023-11-18T00:20:08;1.82;82.55
69543;SHT31;56762;49.494;11.768;2023-11-18T00:22:37;1.80;82.56
69543;SHT31;56762;49.494;11.768;2023-11-18T00:25:06;1.73;82.53
69543;SHT31;56762;49.494;11.768;2023-11-18T00:27:35;1.71;82.98
69543;SHT31;56762;49.494;11.768;2023-11-18T00:30:04;1.66;83.05
69543;SHT31;56762;49.494;11.768;2023-11-18T00:32:35;1.61;83.16
69543;SHT31;56762;49.494;11.768;2023-11-18T00:35:03;1.51;82.09
69543;SHT31;56762;49.494;11.768;2023-11-18T00:37:33;1.47;82.95
69543;SHT31;56762;49.494;11.768;2023-11-18T00:40:01;1.47;83.22
69543;SHT31;56762;49.494;11.768;2023-11-18T00:42:29;1.46;83.41
69543;SHT31;56762;49.494;11.768;2023-11-18T00:44:57;1.46;83.35
69543;SHT31;56762;49.494;11.768;2023-11-18T00:47:25;1.47;83.63
69543;SHT31;56762;49.494;11.768;2023-11-18T00:49:53;1.54;83.44
69543;SHT31;56762;49.494;11.768;2023-11-18T00:52:21;1.57;83.11
69543;SHT31;56762;49.494;11.768;2023-11-18T00:54:51;1.63;83.24
69543;SHT31;56762;49.494;11.768;2023-11-18T00:57:18;1.78;83.81
69543;SHT31;56762;49.494;11.768;2023-11-18T00:59:47;1.84;83.53
69543;SHT31;56762;49.494;11.768;2023-11-18T01:02:14;1.95;83.10
69543;SHT31;56762;49.494;11.768;2023-11-18T01:04:44;2.04;82.25
69543;SHT31;56762;49.494;11.768;2023-11-18T01:07:13;2.21;83.03
69543;SHT31;56762;49.494;11.768;2023-11-18T01:09:40;2.24;81.88
69543;SHT31;56762;49.494;11.768;2023-11-18T01:12:10;2.17;81.12
69543;SHT31;56762;49.494;11.768;2023-11-18T01:14:39;2.08;81.32
69543;SHT31;56762;49.494;11.768;2023-11-18T01:17:08;1.99;81.50
69543;SHT31;56762;49.494;11.768;2023-11-18T01:19:36;1.91;81.35
69543;SHT31;56762;49.494;11.768;2023-11-18T01:22:05;1.85;81.92
69543;SHT31;56762;49.494;11.768;2023-11-18T01:24:33;1.80;82.18
69543;SHT31;56762;49.494;11.768;2023-11-18T01:27:01;1.74;81.99
69543;SHT31;56762;49.494;11.768;2023-11-18T01:29:31;1.67;81.79
69543;SHT31;56762;49.494;11.768;2023-11-18T01:31:59;1.61;81.43
69543;SHT31;56762;49.494;11.768;2023-11-18T01:34:27;1.50;81.77
69543;SHT31;56762;49.494;11.768;2023-11-18T01:36:55;1.40;81.90
69543;SHT31;56762;49.494;11.768;2023-11-18T01:39:23;1.35;82.05
69543;SHT31;56762;49.494;11.768;2023-11-18T01:41:53;1.30;82.51
69543;SHT31;56762;49.494;11.768;2023-11-18T01:44:21;1.30;82.73
69543;SHT31;56762;49.494;11.768;2023-11-18T01:46:52;1.26;82.39
69543;SHT31;56762;49.494;11.768;2023-11-18T01:49:20;1.20;82.24
69543;SHT31;56762;49.494;11.768;2023-11-18T01:51:49;1.15;81.59
69543;SHT31;56762;49.494;11.768;2023-11-18T01:54:17;1.12;82.10
69543;SHT31;56762;49.494;11.768;2023-11-18T01:56:47;1.10;82.64
69543;SHT31;56762;49.494;11.768;2023-11-18T01:59:16;1.15;83.11
69543;SHT31;56762;49.494;11.768;2023-11-18T02:01:47;1.20;83.36
69543;SHT31;56762;49.494;11.768;2023-11-18T02:04:18;1.29;83.04
69543;SHT31;56762;49.494;11.768;2023-11-18T02:06:48;1.40;84.70
69543;SHT31;56762;49.494;11.768;2023-11-18T02:09:17;1.81;88.93
69543;SHT31;56762;49.494;11.768;2023-11-18T02:11:50;2.08;84.91
69543;SHT31;56762;49.494;11.768;2023-11-18T02:14:25;2.05;81.51
69543;SHT31;56762;49.494;11.768;2023-11-18T02:16:56;1.97;80.84
69543;SHT31;56762;49.494;11.768;2023-11-18T02:19:29;1.88;80.75
69543;SHT31;56762;49.494;11.768;2023-11-18T02:22:00;1.77;80.85
69543;SHT31;56762;49.494;11.768;2023-11-18T02:24:29;1.70;81.37
69543;SHT31;56762;49.494;11.768;2023-11-18T02:27:01;1.61;81.50
69543;SHT31;56762;49.494;11.768;2023-11-18T02:29:32;1.60;81.65
69543;SHT31;56762;49.494;11.768;2023-11-18T02:32:09;1.57;81.65
69543;SHT31;56762;49.494;11.768;2023-11-18T02:34:41;1.54;81.76
69543;SHT31;56762;49.494;11.768;2023-11-18T02:37:13;1.49;81.97
69543;SHT31;56762;49.494;11.768;2023-11-18T02:39:43;1.46;81.98
69543;SHT31;56762;49.494;11.768;2023-11-18T02:42:14;1.39;82.22
69543;SHT31;56762;49.494;11.768;2023-11-18T02:44:43;1.37;82.60
69543;SHT31;56762;49.494;11.768;2023-11-18T02:47:11;1.30;82.56
69543;SHT31;56762;49.494;11.768;2023-11-18T02:49:39;1.26;82.41
69543;SHT31;56762;49.494;11.768;2023-11-18T02:52:08;1.22;81.66
69543;SHT31;56762;49.494;11.768;2023-11-18T02:54:36;1.12;81.82
69543;SHT31;56762;49.494;11.768;2023-11-18T02:57:04;1.06;81.95
69543;SHT31;56762;49.494;11.768;2023-11-18T02:59:34;0.99;81.92
69543;SHT31;56762;49.494;11.768;2023-11-18T03:02:01;0.92;81.67
69543;SHT31;56762;49.494;11.768;2023-11-18T03:04:30;0.89;82.25
69543;SHT31;56762;49.494;11.768;2023-11-18T03:06:57;0.85;82.53
69543;SHT31;56762;49.494;11.768;2023-11-18T03:09:26;0.85;82.82
69543;SHT31;56762;49.494;11.768;2023-11-18T03:11:54;0.85;82.85
69543;SHT31;56762;49.494;11.768;2023-11-18T03:14:23;0.82;82.98
69543;SHT31;56762;49.494;11.768;2023-11-18T03:16:52;0.85;82.89
69543;SHT31;56762;49.494;11.768;2023-11-18T03:19:22;0.84;82.90
69543;SHT31;56762;49.494;11.768;2023-11-18T03:21:51;0.87;83.12
69543;SHT31;56762;49.494;11.768;2023-11-18T03:24:19;0.92;83.03
69543;SHT31;56762;49.494;11.768;2023-11-18T03:26:47;0.93;82.94
69543;SHT31;56762;49.494;11.768;2023-11-18T03:29:16;0.99;82.97
69543;SHT31;56762;49.494;11.768;2023-11-18T03:31:44;0.99;82.63
69543;SHT31;56762;49.494;11.768;2023-11-18T03:34:16;1.00;82.56
69543;SHT31;56762;49.494;11.768;2023-11-18T03:36:46;0.99;82.65
69543;SHT31;56762;49.494;11.768;2023-11-18T03:39:14;0.99;82.61
69543;SHT31;56762;49.494;11.768;2023-11-18T03:41:42;0.96;82.45
69543;SHT31;56762;49.494;11.768;2023-11-18T03:44:11;0.95;82.40
69543;SHT31;56762;49.494;11.768;2023-11-18T03:46:39;0.98;82.53
69543;SHT31;56762;49.494;11.768;2023-11-18T03:49:07;0.93;82.16
69543;SHT31;56762;49.494;11.768;2023-11-18T03:51:37;0.92;82.11
69543;SHT31;56762;49.494;11.768;2023-11-18T03:54:06;0.88;81.90
69543;SHT31;56762;49.494;11.768;2023-11-18T03:56:35;0.84;81.68
69543;SHT31;56762;49.494;11.768;2023-11-18T03:59:02;0.79;81.46
69543;SHT31;56762;49.494;11.768;2023-11-18T04:01:31;0.69;82.06
69543;SHT31;56762;49.494;11.768;2023-11-18T04:03:59;0.58;81.33
69543;SHT31;56762;49.494;11.768;2023-11-18T04:06:27;0.50;82.42
69543;SHT31;56762;49.494;11.768;2023-11-18T04:08:56;0.43;82.92
69543;SHT31;56762;49.494;11.768;2023-11-18T04:11:24;0.43;82.86
69543;SHT31;56762;49.494;11.768;2023-11-18T04:13:52;0.46;82.99
69543;SHT31;56762;49.494;11.768;2023-11-18T04:16:20;0.47;83.08
69543;SHT31;56762;49.494;11.768;2023-11-18T04:18:48;0.40;82.09
69543;SHT31;56762;49.494;11.768;2023-11-18T04:21:16;0.37;82.98
69543;SHT31;56762;49.494;11.768;2023-11-18T04:23:44;0.38;83.11
69543;SHT31;56762;49.494;11.768;2023-11-18T04:26:14;0.41;83.33
69543;SHT31;56762;49.494;11.768;2023-11-18T04:28:42;0.41;83.11
69543;SHT31;56762;49.494;11.768;2023-11-18T04:31:10;0.40;82.74
69543;SHT31;56762;49.494;11.768;2023-11-18T04:33:38;0.36;83.03
69543;SHT31;56762;49.494;11.768;2023-11-18T04:36:07;0.36;82.91
69543;SHT31;56762;49.494;11.768;2023-11-18T04:38:37;0.33;83.11
69543;SHT31;56762;49.494;11.768;2023-11-18T04:41:05;0.33;83.48
69543;SHT31;56762;49.494;11.768;2023-11-18T04:43:35;0.33;83.79
69543;SHT31;56762;49.494;11.768;2023-11-18T04:46:11;0.36;83.95
69543;SHT31;56762;49.494;11.768;2023-11-18T04:48:39;0.38;83.65
69543;SHT31;56762;49.494;11.768;2023-11-18T04:51:08;0.43;83.77
69543;SHT31;56762;49.494;11.768;2023-11-18T04:53:36;0.44;83.29
69543;SHT31;56762;49.494;11.768;2023-11-18T04:56:06;0.44;83.00
69543;SHT31;56762;49.494;11.768;2023-11-18T04:58:39;0.37;81.73
69543;SHT31;56762;49.494;11.768;2023-11-18T05:01:07;0.33;82.85
69543;SHT31;56762;49.494;11.768;2023-11-18T05:03:35;0.31;82.95
69543;SHT31;56762;49.494;11.768;2023-11-18T05:06:04;0.31;82.91
69543;SHT31;56762;49.494;11.768;2023-11-18T05:08:32;0.27;82.78
69543;SHT31;56762;49.494;11.768;2023-11-18T05:11:00;0.28;82.66
69543;SHT31;56762;49.494;11.768;2023-11-18T05:13:28;0.30;82.63
69543;SHT31;56762;49.494;11.768;2023-11-18T05:15:57;0.28;82.32
69543;SHT31;56762;49.494;11.768;2023-11-18T05:18:25;0.27;82.47
69543;SHT31;56762;49.494;11.768;2023-11-18T05:20:56;0.26;82.55
69543;SHT31;56762;49.494;11.768;2023-11-18T05:23:24;0.24;82.59
69543;SHT31;56762;49.494;11.768;2023-11-18T05:25:52;0.23;82.55
69543;SHT31;56762;49.494;11.768;2023-11-18T05:28:21;0.20;82.30
69543;SHT31;56762;49.494;11.768;2023-11-18T05:30:50;0.14;82.20
69543;SHT31;56762;49.494;11.768;2023-11-18T05:33:20;0.13;82.23
69543;SHT31;56762;49.494;11.768;2023-11-18T05:35:48;0.06;81.80
69543;SHT31;56762;49.494;11.768;2023-11-18T05:38:17;0.02;82.14
69543;SHT31;56762;49.494;11.768;2023-11-18T05:40:48;-0.03;82.47
69543;SHT31;56762;49.494;11.768;2023-11-18T05:43:23;0.00;82.89
69543;SHT31;56762;49.494;11.768;2023-11-18T05:45:52;-0.01;82.77
69543;SHT31;56762;49.494;11.768;2023-11-18T05:48:43;-0.01;82.71
69543;SHT31;56762;49.494;11.768;2023-11-18T05:51:11;0.05;82.91
69543;SHT31;56762;49.494;11.768;2023-11-18T05:53:40;0.07;82.95
69543;SHT31;56762;49.494;11.768;2023-11-18T05:56:08;0.09;82.94
69543;SHT31;56762;49.494;11.768;2023-11-18T05:58:36;0.14;82.53
69543;SHT31;56762;49.494;11.768;2023-11-18T06:01:05;0.21;82.39
69543;SHT31;56762;49.494;11.768;2023-11-18T06:03:34;0.24;82.18
69543;SHT31;56762;49.494;11.768;2023-11-18T06:06:09;0.24;81.71
69543;SHT31;56762;49.494;11.768;2023-11-18T06:08:37;0.26;81.75
69543;SHT31;56762;49.494;11.768;2023-11-18T06:11:08;0.23;81.63
69543;SHT31;56762;49.494;11.768;2023-11-18T06:13:41;0.16;81.34
69543;SHT31;56762;49.494;11.768;2023-11-18T06:16:12;0.10;81.76
69543;SHT31;56762;49.494;11.768;2023-11-18T06:18:43;0.10;82.23
69543;SHT31;56762;49.494;11.768;2023-11-18T06:21:14;0.11;82.64
69543;SHT31;56762;49.494;11.768;2023-11-18T06:23:42;0.16;82.59
69543;SHT31;56762;49.494;11.768;2023-11-18T06:26:11;0.17;82.32
69543;SHT31;56762;49.494;11.768;2023-11-18T06:28:40;0.16;82.53
69543;SHT31;56762;49.494;11.768;2023-11-18T06:31:08;0.17;82.58
69543;SHT31;56762;49.494;11.768;2023-11-18T06:33:39;0.20;82.83
69543;SHT31;56762;49.494;11.768;2023-11-18T06:36:18;0.23;82.79
69543;SHT31;56762;49.494;11.768;2023-11-18T06:38:46;0.26;82.90
69543;SHT31;56762;49.494;11.768;2023-11-18T06:41:17;0.28;83.40
69543;SHT31;56762;49.494;11.768;2023-11-18T06:43:46;0.30;83.16
69543;SHT31;56762;49.494;11.768;2023-11-18T06:46:26;0.30;82.14
69543;SHT31;56762;49.494;11.768;2023-11-18T06:48:56;0.27;81.70
69543;SHT31;56762;49.494;11.768;2023-11-18T06:51:27;0.23;81.18
69543;SHT31;56762;49.494;11.768;2023-11-18T06:53:55;0.14;80.65
69543;SHT31;56762;49.494;11.768;2023-11-18T06:56:23;0.14;81.92
69543;SHT31;56762;49.494;11.768;2023-11-18T06:58:52;0.13;82.11
69543;SHT31;56762;49.494;11.768;2023-11-18T07:01:20;0.09;81.92
69543;SHT31;56762;49.494;11.768;2023-11-18T07:03:48;0.13;83.03
69543;SHT31;56762;49.494;11.768;2023-11-18T07:06:20;0.20;83.43
69543;SHT31;56762;49.494;11.768;2023-11-18T07:08:51;0.27;83.39
69543;SHT31;56762;49.494;11.768;2023-11-18T07:11:19;0.30;83.29
69543;SHT31;56762;49.494;11.768;2023-11-18T07:13:48;0.37;83.17
69543;SHT31;56762;49.494;11.768;2023-11-18T07:16:23;0.40;83.28
69543;SHT31;56762;49.494;11.768;2023-11-18T07:18:52;0.46;83.70
69543;SHT31;56762;49.494;11.768;2023-11-18T07:21:20;0.47;83.51
69543;SHT31;56762;49.494;11.768;2023-11-18T07:23:48;0.53;83.64
69543;SHT31;56762;49.494;11.768;2023-11-18T07:26:17;0.56;83.86
69543;SHT31;56762;49.494;11.768;2023-11-18T07:28:45;0.60;83.58
69543;SHT31;56762;49.494;11.768;2023-11-18T07:31:13;0.61;83.82
69543;SHT31;56762;49.494;11.768;2023-11-18T07:33:41;0.65;83.76
69543;SHT31;56762;49.494;11.768;2023-11-18T07:36:11;0.72;83.72
69543;SHT31;56762;49.494;11.768;2023-11-18T07:38:39;0.74;84.06
69543;SHT31;56762;49.494;11.768;2023-11-18T07:41:07;0.77;83.56
69543;SHT31;56762;49.494;11.768;2023-11-18T07:43:37;0.81;84.07
69543;SHT31;56762;49.494;11.768;2023-11-18T07:46:07;0.85;84.09
69543;SHT31;56762;49.494;11.768;2023-11-18T07:48:35;0.87;83.48
69543;SHT31;56762;49.494;11.768;2023-11-18T07:51:03;0.92;83.95
69543;SHT31;56762;49.494;11.768;2023-11-18T07:53:30;0.95;84.16
69543;SHT31;56762;49.494;11.768;2023-11-18T07:55:58;1.00;83.71
69543;SHT31;56762;49.494;11.768;2023-11-18T07:58:29;1.03;83.85
69543;SHT31;56762;49.494;11.768;2023-11-18T08:00:59;1.06;83.71
69543;SHT31;56762;49.494;11.768;2023-11-18T08:03:28;1.06;84.14
69543;SHT31;56762;49.494;11.768;2023-11-18T08:05:57;1.12;84.33
69543;SHT31;56762;49.494;11.768;2023-11-18T08:08:25;1.18;84.56
69543;SHT31;56762;49.494;11.768;2023-11-18T08:10:54;1.23;84.23
69543;SHT31;56762;49.494;11.768;2023-11-18T08:13:22;1.23;84.14
69543;SHT31;56762;49.494;11.768;2023-11-18T08:15:50;1.28;84.30
69543;SHT31;56762;49.494;11.768;2023-11-18T08:18:20;1.30;84.05
69543;SHT31;56762;49.494;11.768;2023-11-18T08:20:50;1.33;84.51
69543;SHT31;56762;49.494;11.768;2023-11-18T08:23:18;1.43;84.67
69543;SHT31;56762;49.494;11.768;2023-11-18T08:25:47;1.47;84.66
69543;SHT31;56762;49.494;11.768;2023-11-18T08:28:14;1.57;84.56
69543;SHT31;56762;49.494;11.768;2023-11-18T08:30:42;1.63;84.20
69543;SHT31;56762;49.494;11.768;2023-11-18T08:33:10;1.73;84.23
69543;SHT31;56762;49.494;11.768;2023-11-18T08:35:40;1.82;84.08
69543;SHT31;56762;49.494;11.768;2023-11-18T08:38:09;1.94;84.02
69543;SHT31;56762;49.494;11.768;2023-11-18T08:40:39;2.05;83.57
69543;SHT31;56762;49.494;11.768;2023-11-18T08:43:07;2.15;84.03
69543;SHT31;56762;49.494;11.768;2023-11-18T08:45:35;2.26;82.43
69543;SHT31;56762;49.494;11.768;2023-11-18T08:48:04;2.43;84.72
69543;SHT31;56762;49.494;11.768;2023-11-18T08:50:36;2.53;82.13
69543;SHT31;56762;49.494;11.768;2023-11-18T08:53:07;2.59;82.09
69543;SHT31;56762;49.494;11.768;2023-11-18T08:55:37;2.56;82.11
69543;SHT31;56762;49.494;11.768;2023-11-18T08:58:17;2.63;82.32
69543;SHT31;56762;49.494;11.768;2023-11-18T09:00:48;2.69;82.12
69543;SHT31;56762;49.494;11.768;2023-11-18T09:03:21;2.69;82.40
69543;SHT31;56762;49.494;11.768;2023-11-18T09:05:56;2.69;82.66
69543;SHT31;56762;49.494;11.768;2023-11-18T09:08:28;2.75;82.73
69543;SHT31;56762;49.494;11.768;2023-11-18T09:10:56;2.76;82.41
69543;SHT31;56762;49.494;11.768;2023-11-18T09:13:25;2.75;81.15
69543;SHT31;56762;49.494;11.768;2023-11-18T09:15:56;2.73;82.52
69543;SHT31;56762;49.494;11.768;2023-11-18T09:18:25;2.76;82.59
69543;SHT31;56762;49.494;11.768;2023-11-18T09:20:54;2.79;82.66
69543;SHT31;56762;49.494;11.768;2023-11-18T09:23:22;2.83;82.69
69543;SHT31;56762;49.494;11.768;2023-11-18T09:25:53;2.89;82.89
69543;SHT31;56762;49.494;11.768;2023-11-18T09:28:23;2.93;82.70
69543;SHT31;56762;49.494;11.768;2023-11-18T09:30:51;3.00;82.66
69543;SHT31;56762;49.494;11.768;2023-11-18T09:33:24;3.07;82.19
69543;SHT31;56762;49.494;11.768;2023-11-18T09:35:59;3.08;81.46
69543;SHT31;56762;49.494;11.768;2023-11-18T09:38:28;3.14;82.33
69543;SHT31;56762;49.494;11.768;2023-11-18T09:40:57;3.12;82.21
69543;SHT31;56762;49.494;11.768;2023-11-18T09:43:30;3.21;82.76
69543;SHT31;56762;49.494;11.768;2023-11-18T09:46:04;3.28;82.22
69543;SHT31;56762;49.494;11.768;2023-11-18T09:48:34;3.41;82.69
69543;SHT31;56762;49.494;11.768;2023-11-18T09:51:08;3.51;81.16
69543;SHT31;56762;49.494;11.768;2023-11-18T09:53:40;3.62;82.03
69543;SHT31;56762;49.494;11.768;2023-11-18T09:56:15;3.69;82.21
69543;SHT31;56762;49.494;11.768;2023-11-18T09:59:01;3.78;82.14
69543;SHT31;56762;49.494;11.768;2023-11-18T10:01:37;3.79;82.34
69543;SHT31;56762;49.494;11.768;2023-11-18T10:04:06;3.80;82.62
69543;SHT31;56762;49.494;11.768;2023-11-18T10:06:35;3.80;82.43
69543;SHT31;56762;49.494;11.768;2023-11-18T10:09:06;3.78;82.06
69543;SHT31;56762;49.494;11.768;2023-11-18T10:11:47;3.87;82.24
69543;SHT31;56762;49.494;11.768;2023-11-18T10:14:15;3.97;82.04
69543;SHT31;56762;49.494;11.768;2023-11-18T10:16:44;3.97;81.59
69543;SHT31;56762;49.494;11.768;2023-11-18T10:19:14;3.99;82.49
69543;SHT31;56762;49.494;11.768;2023-11-18T10:21:45;3.99;83.05
69543;SHT31;56762;49.494;11.768;2023-11-18T10:24:16;4.01;82.61
69543;SHT31;56762;49.494;11.768;2023-11-18T10:26:55;4.07;83.26
69543;SHT31;56762;49.494;11.768;2023-11-18T10:29:24;4.07;83.38
69543;SHT31;56762;49.494;11.768;2023-11-18T10:32:05;4.16;83.64
69543;SHT31;56762;49.494;11.768;2023-11-18T10:34:36;4.16;82.52
69543;SHT31;56762;49.494;11.768;2023-11-18T10:37:05;4.20;83.28
69543;SHT31;56762;49.494;11.768;2023-11-18T10:39:33;4.27;82.71
69543;SHT31;56762;49.494;11.768;2023-11-18T10:42:04;4.29;83.02
69543;SHT31;56762;49.494;11.768;2023-11-18T10:44:32;4.41;84.38
69543;SHT31;56762;49.494;11.768;2023-11-18T10:47:01;4.45;83.42
69543;SHT31;56762;49.494;11.768;2023-11-18T10:49:29;4.52;83.69
69543;SHT31;56762;49.494;11.768;2023-11-18T10:52:05;4.64;84.28
69543;SHT31;56762;49.494;11.768;2023-11-18T10:54:35;4.65;82.73
69543;SHT31;56762;49.494;11.768;2023-11-18T10:57:06;4.67;83.83
69543;SHT31;56762;49.494;11.768;2023-11-18T10:59:35;4.78;83.90
69543;SHT31;56762;49.494;11.768;2023-11-18T11:02:18;4.81;82.98
69543;SHT31;56762;49.494;11.768;2023-11-18T11:04:49;4.83;82.66
69543;SHT31;56762;49.494;11.768;2023-11-18T11:07:21;4.97;85.18
69543;SHT31;56762;49.494;11.768;2023-11-18T11:09:50;5.00;83.02
69543;SHT31;56762;49.494;11.768;2023-11-18T11:12:25;5.02;82.29
69543;SHT31;56762;49.494;11.768;2023-11-18T11:15:01;5.08;82.26
69543;SHT31;56762;49.494;11.768;2023-11-18T11:17:31;5.08;81.98
69543;SHT31;56762;49.494;11.768;2023-11-18T11:20:04;5.16;82.86
69543;SHT31;56762;49.494;11.768;2023-11-18T11:22:52;5.13;82.64
69543;SHT31;56762;49.494;11.768;2023-11-18T11:25:28;5.26;82.71
69543;SHT31;56762;49.494;11.768;2023-11-18T11:28:08;5.36;82.31
69543;SHT31;56762;49.494;11.768;2023-11-18T11:30:44;5.39;82.95
69543;SHT31;56762;49.494;11.768;2023-11-18T11:33:20;5.37;81.65
69543;SHT31;56762;49.494;11.768;2023-11-18T11:35:54;5.60;87.43
69543;SHT31;56762;49.494;11.768;2023-11-18T11:38:24;5.81;83.87
69543;SHT31;56762;49.494;11.768;2023-11-18T11:40:54;5.84;81.87
69543;SHT31;56762;49.494;11.768;2023-11-18T11:43:24;6.12;87.44
69543;SHT31;56762;49.494;11.768;2023-11-18T11:45:54;6.33;81.59
69543;SHT31;56762;49.494;11.768;2023-11-18T11:48:23;6.52;82.86
69543;SHT31;56762;49.494;11.768;2023-11-18T11:51:02;6.53;82.78
69543;SHT31;56762;49.494;11.768;2023-11-18T11:53:34;6.66;84.53
69543;SHT31;56762;49.494;11.768;2023-11-18T11:56:06;6.95;82.97
69543;SHT31;56762;49.494;11.768;2023-11-18T11:58:42;7.24;81.72
69543;SHT31;56762;49.494;11.768;2023-11-18T12:01:15;7.12;77.69
69543;SHT31;56762;49.494;11.768;2023-11-18T12:03:46;6.94;77.76
69543;SHT31;56762;49.494;11.768;2023-11-18T12:06:19;6.79;78.74
69543;SHT31;56762;49.494;11.768;2023-11-18T12:08:51;6.66;79.35
69543;SHT31;56762;49.494;11.768;2023-11-18T12:11:19;6.74;81.53
69543;SHT31;56762;49.494;11.768;2023-11-18T12:14:03;6.94;81.99
69543;SHT31;56762;49.494;11.768;2023-11-18T12:16:59;6.88;80.10
69543;SHT31;56762;49.494;11.768;2023-11-18T12:19:36;7.03;83.55
69543;SHT31;56762;49.494;11.768;2023-11-18T12:22:12;7.39;82.98
69543;SHT31;56762;49.494;11.768;2023-11-18T12:28:07;7.72;78.97
69543;SHT31;56762;49.494;11.768;2023-11-18T12:30:40;7.66;80.77
69543;SHT31;56762;49.494;11.768;2023-11-18T12:33:19;7.62;79.56
69543;SHT31;56762;49.494;11.768;2023-11-18T12:36:37;7.41;77.85
69543;SHT31;56762;49.494;11.768;2023-11-18T12:39:26;7.35;79.03
69543;SHT31;56762;49.494;11.768;2023-11-18T12:42:04;7.49;81.27
69543;SHT31;56762;49.494;11.768;2023-11-18T12:44:37;7.62;81.16
69543;SHT31;56762;49.494;11.768;2023-11-18T12:47:11;7.54;77.80
69543;SHT31;56762;49.494;11.768;2023-11-18T12:49:45;7.39;77.87
69543;SHT31;56762;49.494;11.768;2023-11-18T12:52:17;7.36;80.29
69543;SHT31;56762;49.494;11.768;2023-11-18T12:54:46;7.24;79.10
69543;SHT31;56762;49.494;11.768;2023-11-18T12:57:19;7.12;79.25
69543;SHT31;56762;49.494;11.768;2023-11-18T12:59:49;6.98;78.69
69543;SHT31;56762;49.494;11.768;2023-11-18T13:02:19;7.07;80.75
69543;SHT31;56762;49.494;11.768;2023-11-18T13:04:48;7.14;81.47
69543;SHT31;56762;49.494;11.768;2023-11-18T13:07:17;7.12;79.99
69543;SHT31;56762;49.494;11.768;2023-11-18T13:09:46;7.09;79.79
69543;SHT31;56762;49.494;11.768;2023-11-18T13:12:14;7.09;80.47
69543;SHT31;56762;49.494;11.768;2023-11-18T13:14:44;7.19;80.64
69543;SHT31;56762;49.494;11.768;2023-11-18T13:17:14;7.25;81.60
69543;SHT31;56762;49.494;11.768;2023-11-18T13:19:44;7.51;82.92
69543;SHT31;56762;49.494;11.768;2023-11-18T13:22:14;7.59;80.96
69543;SHT31;56762;49.494;11.768;2023-11-18T13:24:45;7.67;78.62
69543;SHT31;56762;49.494;11.768;2023-11-18T13:27:15;7.51;78.09
69543;SHT31;56762;49.494;11.768;2023-11-18T13:29:44;7.41;78.14
69543;SHT31;56762;49.494;11.768;2023-11-18T13:32:16;7.36;78.81
69543;SHT31;56762;49.494;11.768;2023-11-18T13:34:45;7.31;79.28
69543;SHT31;56762;49.494;11.768;2023-11-18T13:37:13;7.26;79.18
69543;SHT31;56762;49.494;11.768;2023-11-18T13:39:43;7.24;79.76
69543;SHT31;56762;49.494;11.768;2023-11-18T13:42:20;7.31;82.50
69543;SHT31;56762;49.494;11.768;2023-11-18T13:44:50;7.65;83.40
69543;SHT31;56762;49.494;11.768;2023-11-18T13:47:20;7.67;78.31
69543;SHT31;56762;49.494;11.768;2023-11-18T13:49:53;7.82;82.09
69543;SHT31;56762;49.494;11.768;2023-11-18T13:52:21;8.14;81.93
69543;SHT31;56762;49.494;11.768;2023-11-18T13:54:49;8.37;79.06
69543;SHT31;56762;49.494;11.768;2023-11-18T13:57:23;8.83;79.37
69543;SHT31;56762;49.494;11.768;2023-11-18T13:59:50;8.99;75.43
69543;SHT31;56762;49.494;11.768;2023-11-18T14:02:18;8.92;75.12
69543;SHT31;56762;49.494;11.768;2023-11-18T14:04:51;8.72;76.36
69543;SHT31;56762;49.494;11.768;2023-11-18T14:07:23;8.62;76.41
69543;SHT31;56762;49.494;11.768;2023-11-18T14:09:51;8.31;76.20
69543;SHT31;56762;49.494;11.768;2023-11-18T14:12:23;8.07;76.50
69543;SHT31;56762;49.494;11.768;2023-11-18T14:14:54;7.83;77.20
69543;SHT31;56762;49.494;11.768;2023-11-18T14:17:22;7.80;77.90
69543;SHT31;56762;49.494;11.768;2023-11-18T14:19:51;7.80;79.10
69543;SHT31;56762;49.494;11.768;2023-11-18T14:22:19;7.85;78.76
69543;SHT31;56762;49.494;11.768;2023-11-18T14:24:48;7.82;78.91
69543;SHT31;56762;49.494;11.768;2023-11-18T14:27:16;7.87;78.85
69543;SHT31;56762;49.494;11.768;2023-11-18T14:29:43;7.86;79.58
69543;SHT31;56762;49.494;11.768;2023-11-18T14:32:13;7.67;78.05
69543;SHT31;56762;49.494;11.768;2023-11-18T14:34:41;7.70;78.79
69543;SHT31;56762;49.494;11.768;2023-11-18T14:37:11;7.82;80.56
69543;SHT31;56762;49.494;11.768;2023-11-18T14:39:39;7.62;78.07
69543;SHT31;56762;49.494;11.768;2023-11-18T14:42:07;7.65;78.64
69543;SHT31;56762;49.494;11.768;2023-11-18T14:44:36;7.61;78.71
69543;SHT31;56762;49.494;11.768;2023-11-18T14:47:04;7.45;78.61
69543;SHT31;56762;49.494;11.768;2023-11-18T14:49:34;7.38;78.84
69543;SHT31;56762;49.494;11.768;2023-11-18T14:52:02;7.41;80.45
69543;SHT31;56762;49.494;11.768;2023-11-18T14:54:31;7.39;80.09
69543;SHT31;56762;49.494;11.768;2023-11-18T14:57:02;7.32;79.81
69543;SHT31;56762;49.494;11.768;2023-11-18T14:59:32;7.29;79.87
69543;SHT31;56762;49.494;11.768;2023-11-18T15:01:59;7.42;83.75
69543;SHT31;56762;49.494;11.768;2023-11-18T15:04:27;7.41;79.67
69543;SHT31;56762;49.494;11.768;2023-11-18T15:06:56;7.29;79.36
69543;SHT31;56762;49.494;11.768;2023-11-18T15:09:24;7.29;81.30
69543;SHT31;56762;49.494;11.768;2023-11-18T15:11:53;7.25;79.79
69543;SHT31;56762;49.494;11.768;2023-11-18T15:14:21;7.28;81.27
69543;SHT31;56762;49.494;11.768;2023-11-18T15:16:49;7.26;81.02
69543;SHT31;56762;49.494;11.768;2023-11-18T15:19:17;7.35;82.35
69543;SHT31;56762;49.494;11.768;2023-11-18T15:21:45;7.51;82.21
69543;SHT31;56762;49.494;11.768;2023-11-18T15:24:14;7.96;84.30
69543;SHT31;56762;49.494;11.768;2023-11-18T15:26:43;8.11;81.72
69543;SHT31;56762;49.494;11.768;2023-11-18T15:29:15;8.23;79.39
69543;SHT31;56762;49.494;11.768;2023-11-18T15:31:43;8.38;80.83
69543;SHT31;56762;49.494;11.768;2023-11-18T15:34:12;8.38;80.36
69543;SHT31;56762;49.494;11.768;2023-11-18T15:36:41;8.48;80.52
69543;SHT31;56762;49.494;11.768;2023-11-18T15:39:09;8.49;80.94
69543;SHT31;56762;49.494;11.768;2023-11-18T15:41:41;8.45;81.05
69543;SHT31;56762;49.494;11.768;2023-11-18T15:44:09;8.55;80.64
69543;SHT31;56762;49.494;11.768;2023-11-18T15:46:47;8.45;79.29
69543;SHT31;56762;49.494;11.768;2023-11-18T15:49:16;8.49;80.62
69543;SHT31;56762;49.494;11.768;2023-11-18T15:51:44;8.61;80.04